Time;durP1;ratioP1;P1;durP2;ratioP2;P2;SDS_P1;SDS_P2;PMS_P1;PMS_P2;Temp;Humidity;BMP_temperature;BMP_pressure;BME280_temperature;BME280_humidity;BME280_pressure;Samples;Min_cycle;Max_cycle;Signal;HPM_P1;HPM_P2
2022/03/13 00:00:21;;;;;;;;;;;10.50;93.10;10.90;99394.00;;;;348021;27;92552;-90
2022/03/13 00:00:48;;;;;;;;;;;10.50;93.00;10.90;99387.00;;;;344197;28;92330;-90
2022/03/13 00:01:03;;;;;;;;;;;10.50;93.20;10.90;99386.00;;;;344098;28;92125;-90
2022/03/13 00:01:22;;;;;;;;;;;10.50;93.10;10.90;99384.00;;;;341664;28;95002;-90
2022/03/13 00:01:34;;;;;;;;;;;10.50;93.00;10.90;99387.00;;;;345411;28;91321;-89
2022/03/13 00:01:46;;;;;;;;;;;10.50;93.00;11.00;99389.00;;;;342615;28;95579;-89
2022/03/13 00:01:58;;;;;;;;;;;10.50;93.00;10.90;99387.00;;;;343503;28;92144;-89
2022/03/13 00:02:16;;;;;;;;;;;10.50;93.00;10.90;99389.00;;;;343447;28;94946;-88
2022/03/13 00:02:28;;;;;;;;;;;10.50;93.00;10.90;99398.00;;;;342560;28;91336;-89
2022/03/13 00:02:40;;;;;;;;;;;10.50;93.00;10.90;99384.00;;;;341719;28;93252;-90
2022/03/13 00:02:55;;;;;;;;;;;10.50;93.00;10.90;99393.00;;;;341150;28;92098;-90
2022/03/13 00:03:09;;;;;;;;;;;10.50;93.00;11.00;99394.00;;;;342853;28;95901;-90
2022/03/13 00:03:22;;;;;;;;;;;10.50;93.00;10.90;99394.00;;;;344786;28;92069;-89
2022/03/13 00:03:35;;;;;;;;;;;10.50;93.00;10.90;99385.00;;;;345668;28;95074;-90
2022/03/13 00:03:47;;;;;;;;;;;10.50;93.00;10.90;99392.00;;;;341736;28;92117;-90
2022/03/13 00:04:01;;;;;;;;;;;10.50;93.00;10.90;99383.00;;;;340222;28;95646;-89
2022/03/13 00:04:13;;;;;;;;;;;10.50;93.00;10.90;99395.00;;;;342812;28;92052;-89
2022/03/13 00:04:25;;;;;;;;;;;10.50;93.00;11.00;99382.00;;;;341590;28;96253;-90
2022/03/13 00:04:37;;;;;;;;;;;10.50;93.00;10.90;99396.00;;;;344462;28;91316;-89
2022/03/13 00:04:49;;;;;;;;;;;10.50;93.00;10.90;99390.00;;;;343667;28;91733;-89
2022/03/13 00:05:01;;;;;;;;;;;10.50;93.00;10.90;99393.00;;;;341620;28;92011;-90
2022/03/13 00:05:16;;;;;;;;;;;10.50;93.00;10.90;99392.00;;;;345733;28;93474;-89
2022/03/13 00:05:28;;;;;;;;;;;10.50;93.10;10.90;99392.00;;;;344108;28;92175;-90
2022/03/13 00:05:41;;;;;;;;;;;10.50;93.10;10.90;99393.00;;;;339178;28;95750;-90
2022/03/13 00:05:53;;;;;;;;;;;10.50;93.10;10.90;99391.00;;;;344043;28;92220;-90
2022/03/13 00:06:05;;;;;;;;;;;10.50;93.10;10.90;99388.00;;;;344200;28;94762;-89
2022/03/13 00:06:27;;;;;;;;;;;10.50;93.10;10.90;99383.00;;;;344078;28;92226;-90
2022/03/13 00:06:39;;;;;;;;;;;10.50;93.20;10.90;99393.00;;;;343753;28;95509;-89
2022/03/13 00:06:51;;;;;;;;;;;10.50;93.30;10.90;99385.00;;;;341314;28;90501;-89
2022/03/13 00:07:08;;;;;;;;;;;10.50;93.00;11.00;99394.00;;;;343090;28;92742;-89
2022/03/13 00:07:21;;;;;;;;;;;10.50;93.00;11.00;99387.00;;;;344150;28;91150;-89
2022/03/13 00:07:34;;;;;;;;;;;10.50;92.90;11.00;99386.00;;;;340705;28;94604;-90
2022/03/13 00:07:47;;;;;;;;;;;10.50;92.90;11.00;99382.00;;;;340923;28;92110;-89
2022/03/13 00:07:59;;;;;;;;;;;10.50;92.90;11.00;99391.00;;;;344009;28;95708;-90
2022/03/13 00:08:32;;;;;;;;;;;10.50;92.80;11.00;99388.00;;;;343888;28;92263;-89
2022/03/13 00:08:45;;;;;;;;;;;10.50;92.90;11.00;99394.00;;;;342872;28;95853;-89
2022/03/13 00:08:58;;;;;;;;;;;10.50;92.90;11.00;99390.00;;;;341431;28;92607;-89
2022/03/13 00:09:12;;;;;;;;;;;10.50;92.90;11.00;99397.00;;;;344239;28;95230;-89
2022/03/13 00:09:25;;;;;;;;;;;10.50;92.90;11.00;99393.00;;;;343692;28;91429;-89
2022/03/13 00:09:37;;;;;;;;;;;10.50;92.90;11.00;99393.00;;;;340334;28;94859;-89
2022/03/13 00:09:49;;;;;;;;;;;10.50;93.00;10.90;99387.00;;;;345351;28;92054;-89
2022/03/13 00:10:01;;;;;;;;;;;10.50;92.90;10.90;99394.00;;;;345606;28;96068;-89
2022/03/13 00:10:16;;;;;;;;;;;10.50;93.20;10.90;99383.00;;;;342641;28;92060;-90
2022/03/13 00:10:29;;;;;;;;;;;10.50;92.90;10.90;99389.00;;;;342950;28;95957;-89
2022/03/13 00:10:41;;;;;;;;;;;10.50;93.00;11.00;99379.00;;;;342710;28;92164;-90
2022/03/13 00:10:56;;;;;;;;;;;10.50;93.00;11.00;99392.00;;;;344090;28;95876;-89
2022/03/13 00:11:16;;;;;;;;;;;10.50;93.00;10.90;99393.00;;;;345026;28;91263;-89
2022/03/13 00:11:30;;;;;;;;;;;10.50;93.00;11.00;99396.00;;;;340422;28;92066;-90
2022/03/13 00:11:42;;;;;;;;;;;10.50;93.00;11.00;99389.00;;;;341982;28;91345;-90
2022/03/13 00:11:54;;;;;;;;;;;10.50;93.00;11.00;99389.00;;;;341535;28;94181;-89
2022/03/13 00:12:08;;;;;;;;;;;10.50;93.00;10.90;99390.00;;;;341261;28;92148;-89
2022/03/13 00:12:26;;;;;;;;;;;10.50;93.10;10.90;99389.00;;;;343904;28;93456;-89
2022/03/13 00:12:37;;;;;;;;;;;10.50;93.00;10.90;99392.00;;;;344752;28;91130;-89
2022/03/13 00:12:49;;;;;;;;;;;10.50;93.00;10.90;99392.00;;;;341492;28;95628;-89
2022/03/13 00:13:04;;;;;;;;;;;10.50;93.00;10.90;99392.00;;;;340051;28;91950;-90
2022/03/13 00:13:19;;;;;;;;;;;10.50;93.10;10.80;99379.00;;;;344216;28;94603;-89
2022/03/13 00:13:32;;;;;;;;;;;10.50;92.90;10.90;99392.00;;;;344041;28;91989;-89
2022/03/13 00:13:48;;;;;;;;;;;10.50;93.00;10.90;99392.00;;;;345653;28;95902;-89
2022/03/13 00:14:00;;;;;;;;;;;10.50;93.00;10.90;99396.00;;;;344585;28;90584;-90
2022/03/13 00:14:13;;;;;;;;;;;10.50;92.90;10.90;99387.00;;;;343507;28;93844;-89
2022/03/13 00:14:25;;;;;;;;;;;10.50;93.00;10.90;99395.00;;;;342589;28;92058;-90
2022/03/13 00:14:40;;;;;;;;;;;10.50;93.00;10.90;99401.00;;;;344314;28;93098;-89
2022/03/13 00:14:55;;;;;;;;;;;10.50;93.00;10.90;99392.00;;;;339995;28;92126;-89
2022/03/13 00:15:10;;;;;;;;;;;10.50;93.10;10.90;99390.00;;;;340172;28;96283;-90
2022/03/13 00:15:35;;;;;;;;;;;10.50;93.20;10.90;99394.00;;;;342669;28;91166;-89
2022/03/13 00:15:49;;;;;;;;;;;10.50;93.10;10.80;99393.00;;;;341653;28;94606;-89
2022/03/13 00:16:08;;;;;;;;;;;10.50;93.10;10.90;99393.00;;;;340068;28;92220;-90
2022/03/13 00:16:20;;;;;;;;;;;10.50;93.10;10.90;99404.00;;;;341650;28;95839;-90
2022/03/13 00:16:33;;;;;;;;;;;10.50;93.10;10.90;99397.00;;;;341393;28;91246;-90
2022/03/13 00:16:45;;;;;;;;;;;10.50;93.10;11.00;99396.00;;;;342563;28;95625;-89
2022/03/13 00:16:57;;;;;;;;;;;10.40;93.10;10.90;99399.00;;;;343945;28;92062;-90
2022/03/13 00:17:15;;;;;;;;;;;10.50;93.20;10.90;99394.00;;;;342883;28;94742;-90
2022/03/13 00:17:30;;;;;;;;;;;10.50;93.20;10.90;99398.00;;;;342623;28;92758;-90
2022/03/13 00:17:42;;;;;;;;;;;10.50;93.10;10.90;99401.00;;;;342588;28;95590;-89
2022/03/13 00:17:55;;;;;;;;;;;10.50;93.20;10.80;99398.00;;;;342494;28;92091;-89
2022/03/13 00:18:11;;;;;;;;;;;10.40;93.10;10.80;99392.00;;;;342870;28;96232;-90
2022/03/13 00:18:22;;;;;;;;;;;10.50;93.40;10.80;99398.00;;;;339906;28;92118;-90
2022/03/13 00:18:41;;;;;;;;;;;10.40;93.00;10.90;99402.00;;;;344444;28;95615;-89
2022/03/13 00:18:55;;;;;;;;;;;10.50;93.10;11.00;99400.00;;;;342696;28;91307;-90
2022/03/13 00:19:10;;;;;;;;;;;10.50;93.20;10.90;99406.00;;;;340344;28;93960;-90
2022/03/13 00:19:24;;;;;;;;;;;10.50;93.20;10.90;99406.00;;;;341278;28;92038;-90
2022/03/13 00:19:35;;;;;;;;;;;10.50;93.20;10.90;99389.00;;;;342277;28;96660;-89
2022/03/13 00:19:49;;;;;;;;;;;10.50;93.10;10.90;99391.00;;;;342339;28;92159;-90
2022/03/13 00:20:03;;;;;;;;;;;10.40;93.10;10.90;99402.00;;;;344155;28;95499;-90
2022/03/13 00:20:14;;;;;;;;;;;10.40;93.10;10.90;99393.00;;;;343582;28;92161;-89
2022/03/13 00:20:27;;;;;;;;;;;10.40;93.00;10.90;99410.00;;;;341656;28;95892;-90
2022/03/13 00:20:39;;;;;;;;;;;10.50;93.10;10.90;99394.00;;;;344108;28;92067;-90
2022/03/13 00:20:51;;;;;;;;;;;10.50;93.10;10.90;99396.00;;;;344760;28;96364;-89
2022/03/13 00:21:04;;;;;;;;;;;10.50;93.40;10.80;99398.00;;;;343799;28;92509;-89
2022/03/13 00:21:19;;;;;;;;;;;10.50;93.00;10.80;99402.00;;;;344153;28;95397;-89
2022/03/13 00:21:31;;;;;;;;;;;10.40;93.10;10.90;99402.00;;;;343821;28;92105;-90
2022/03/13 00:21:45;;;;;;;;;;;10.50;93.20;10.80;99406.00;;;;343932;28;94914;-89
2022/03/13 00:21:57;;;;;;;;;;;10.40;93.20;10.80;99403.00;;;;343950;28;92327;-89
2022/03/13 00:22:10;;;;;;;;;;;10.40;93.20;10.80;99402.00;;;;342960;28;95877;-90
2022/03/13 00:22:21;;;;;;;;;;;10.40;93.20;10.80;99401.00;;;;345429;28;91930;-89
2022/03/13 00:22:34;;;;;;;;;;;10.40;93.20;10.80;99403.00;;;;344355;28;95222;-90
2022/03/13 00:22:46;;;;;;;;;;;10.40;93.20;10.80;99403.00;;;;343549;28;92267;-90
2022/03/13 00:22:58;;;;;;;;;;;10.40;93.20;10.80;99406.00;;;;344270;28;96103;-89
2022/03/13 00:23:10;;;;;;;;;;;10.40;93.30;10.80;99399.00;;;;343952;28;90515;-90
2022/03/13 00:23:22;;;;;;;;;;;10.40;93.30;10.80;99411.00;;;;345483;28;95361;-89
2022/03/13 00:23:34;;;;;;;;;;;10.40;93.20;10.80;99396.00;;;;341271;28;91375;-90
2022/03/13 00:23:46;;;;;;;;;;;10.40;93.40;10.90;99403.00;;;;345753;28;94777;-90
2022/03/13 00:23:59;;;;;;;;;;;10.40;93.20;10.90;99404.00;;;;344189;28;91169;-89
2022/03/13 00:24:10;;;;;;;;;;;10.40;93.20;10.90;99397.00;;;;339714;28;95758;-90
2022/03/13 00:24:23;;;;;;;;;;;10.40;93.20;10.90;99407.00;;;;342805;28;91143;-90
2022/03/13 00:24:35;;;;;;;;;;;10.40;93.50;10.90;99402.00;;;;344341;28;96312;-90
2022/03/13 00:24:47;;;;;;;;;;;10.40;93.20;10.90;99405.00;;;;341172;28;92108;-90
2022/03/13 00:24:59;;;;;;;;;;;10.40;93.20;10.90;99400.00;;;;342971;28;95757;-89
2022/03/13 00:25:12;;;;;;;;;;;10.40;93.30;10.90;99405.00;;;;344806;28;91195;-90
2022/03/13 00:25:25;;;;;;;;;;;10.40;93.20;10.90;99406.00;;;;344203;28;95229;-89
2022/03/13 00:25:36;;;;;;;;;;;10.40;93.20;10.80;99393.00;;;;341021;28;92030;-90
2022/03/13 00:25:48;;;;;;;;;;;10.40;93.30;10.80;99397.00;;;;342185;28;95884;-89
2022/03/13 00:26:02;;;;;;;;;;;10.40;93.20;10.80;99410.00;;;;343737;28;92139;-89
2022/03/13 00:26:15;;;;;;;;;;;10.40;93.20;10.80;99400.00;;;;341162;28;94421;-90
2022/03/13 00:26:27;;;;;;;;;;;10.40;93.20;10.80;99397.00;;;;342466;28;92284;-90
2022/03/13 00:26:39;;;;;;;;;;;10.40;93.20;10.80;99399.00;;;;342838;28;95576;-90
2022/03/13 00:26:52;;;;;;;;;;;10.40;93.20;10.90;99393.00;;;;341259;28;92068;-90
2022/03/13 00:27:04;;;;;;;;;;;10.40;93.20;10.90;99400.00;;;;344259;28;96030;-90
2022/03/13 00:27:16;;;;;;;;;;;10.40;93.30;10.80;99392.00;;;;341379;28;91295;-90
2022/03/13 00:27:30;;;;;;;;;;;10.40;93.30;10.80;99395.00;;;;340413;28;94260;-90
2022/03/13 00:27:42;;;;;;;;;;;10.40;93.30;10.80;99397.00;;;;342553;28;92106;-90
2022/03/13 00:27:54;;;;;;;;;;;10.40;93.30;10.80;99397.00;;;;342981;28;94876;-89
2022/03/13 00:28:07;;;;;;;;;;;10.40;93.30;10.70;99402.00;;;;340890;28;92736;-89
2022/03/13 00:28:19;;;;;;;;;;;10.40;93.30;10.70;99397.00;;;;345727;28;95628;-90
2022/03/13 00:28:30;;;;;;;;;;;10.40;93.30;10.80;99401.00;;;;343904;28;91380;-90
2022/03/13 00:28:45;;;;;;;;;;;10.40;93.40;10.80;99409.00;;;;341761;28;95691;-90
2022/03/13 00:28:57;;;;;;;;;;;10.40;93.30;10.80;99398.00;;;;344281;28;91231;-89
2022/03/13 00:29:09;;;;;;;;;;;10.40;93.30;10.80;99421.00;;;;343825;28;95836;-90
2022/03/13 00:29:21;;;;;;;;;;;10.40;93.20;10.70;99391.00;;;;342746;28;91190;-90
2022/03/13 00:29:34;;;;;;;;;;;10.40;93.30;10.80;99401.00;;;;342905;28;95166;-89
2022/03/13 00:29:45;;;;;;;;;;;10.30;93.30;10.80;99400.00;;;;344582;28;92136;-90
2022/03/13 00:29:58;;;;;;;;;;;10.40;93.30;10.80;99400.00;;;;341535;28;95785;-89
2022/03/13 00:30:11;;;;;;;;;;;10.40;93.30;10.90;99395.00;;;;342634;28;91242;-90
2022/03/13 00:30:23;;;;;;;;;;;10.30;93.20;10.80;99403.00;;;;345121;28;96018;-90
2022/03/13 00:30:35;;;;;;;;;;;10.40;93.30;10.80;99398.00;;;;344059;28;92035;-90
2022/03/13 00:30:47;;;;;;;;;;;10.30;93.30;10.80;99403.00;;;;342983;28;94629;-90
2022/03/13 00:30:59;;;;;;;;;;;10.40;93.40;10.90;99406.00;;;;341131;28;91148;-89
2022/03/13 00:31:11;;;;;;;;;;;10.30;93.30;10.80;99395.00;;;;342994;28;94985;-90
2022/03/13 00:31:24;;;;;;;;;;;10.40;93.30;10.80;99400.00;;;;345180;28;90740;-90
2022/03/13 00:31:36;;;;;;;;;;;10.40;93.30;10.80;99397.00;;;;342834;28;94864;-89
2022/03/13 00:31:48;;;;;;;;;;;10.30;93.30;10.80;99402.00;;;;343843;28;92088;-89
2022/03/13 00:32:00;;;;;;;;;;;10.40;93.30;10.80;99402.00;;;;345531;28;98655;-90
2022/03/13 00:32:12;;;;;;;;;;;10.40;93.30;10.80;99396.00;;;;342493;28;92125;-89
2022/03/13 00:32:24;;;;;;;;;;;10.40;93.30;10.80;99396.00;;;;343848;28;95278;-90
2022/03/13 00:32:36;;;;;;;;;;;10.40;93.30;10.80;99400.00;;;;342619;28;92173;-90
2022/03/13 00:32:48;;;;;;;;;;;10.40;93.30;10.80;99399.00;;;;344092;28;94633;-89
2022/03/13 00:33:00;;;;;;;;;;;10.40;93.30;10.80;99400.00;;;;342708;28;92012;-90
2022/03/13 00:33:12;;;;;;;;;;;10.40;93.30;10.80;99398.00;;;;343055;28;94595;-89
2022/03/13 00:33:25;;;;;;;;;;;10.30;93.60;10.80;99391.00;;;;339850;28;91351;-89
2022/03/13 00:33:37;;;;;;;;;;;10.40;93.30;10.80;99403.00;;;;343333;28;95234;-90
2022/03/13 00:33:49;;;;;;;;;;;10.40;93.30;10.90;99408.00;;;;344072;28;92039;-89
2022/03/13 00:34:00;;;;;;;;;;;10.40;93.30;10.90;99407.00;;;;342964;28;93424;-89
2022/03/13 00:34:13;;;;;;;;;;;10.40;93.40;10.90;99398.00;;;;342054;28;92804;-90
2022/03/13 00:34:25;;;;;;;;;;;10.40;93.40;10.90;99396.00;;;;344227;28;94830;-89
2022/03/13 00:34:37;;;;;;;;;;;10.40;93.40;10.90;99400.00;;;;343594;28;91950;-90
2022/03/13 00:34:48;;;;;;;;;;;10.40;93.40;10.90;99391.00;;;;344883;28;94589;-90
2022/03/13 00:35:00;;;;;;;;;;;10.40;93.40;10.90;99392.00;;;;344107;28;91230;-89
2022/03/13 00:35:13;;;;;;;;;;;10.40;93.40;10.90;99387.00;;;;344632;28;95970;-89
2022/03/13 00:35:24;;;;;;;;;;;10.40;93.30;10.90;99383.00;;;;344129;28;90344;-90
2022/03/13 00:35:38;;;;;;;;;;;10.40;93.30;10.90;99397.00;;;;341567;28;95071;-89
2022/03/13 00:35:49;;;;;;;;;;;10.40;93.30;10.80;99397.00;;;;342745;28;92161;-89
2022/03/13 00:36:02;;;;;;;;;;;10.40;93.40;10.80;99402.00;;;;344273;28;95692;-90
2022/03/13 00:36:13;;;;;;;;;;;10.40;93.40;10.80;99400.00;;;;342773;28;91913;-89
2022/03/13 00:36:25;;;;;;;;;;;10.40;93.50;10.80;99406.00;;;;345312;28;94449;-90
2022/03/13 00:36:37;;;;;;;;;;;10.40;93.40;10.80;99405.00;;;;340376;28;92678;-90
2022/03/13 00:36:49;;;;;;;;;;;10.40;93.40;10.80;99405.00;;;;341470;28;95558;-90
2022/03/13 00:37:01;;;;;;;;;;;10.40;93.40;10.80;99394.00;;;;342833;28;91780;-89
2022/03/13 00:37:13;;;;;;;;;;;10.40;93.40;10.80;99403.00;;;;341589;28;96031;-90
2022/03/13 00:37:25;;;;;;;;;;;10.40;93.40;10.80;99404.00;;;;343655;28;91358;-89
2022/03/13 00:37:37;;;;;;;;;;;10.40;93.50;10.80;99406.00;;;;344322;28;92665;-90
2022/03/13 00:37:49;;;;;;;;;;;10.40;93.50;10.70;99412.00;;;;344858;28;92121;-90
2022/03/13 00:38:01;;;;;;;;;;;10.40;93.40;10.70;99406.00;;;;344066;28;96073;-90
2022/03/13 00:38:13;;;;;;;;;;;10.40;93.40;10.80;99414.00;;;;343033;28;92117;-89
2022/03/13 00:38:25;;;;;;;;;;;10.30;93.40;10.80;99407.00;;;;345714;28;93887;-90
2022/03/13 00:38:37;;;;;;;;;;;10.40;93.40;10.70;99402.00;;;;344141;28;91278;-90
2022/03/13 00:38:49;;;;;;;;;;;10.40;93.40;10.70;99399.00;;;;341437;28;96091;-90
2022/03/13 00:39:01;;;;;;;;;;;10.30;93.30;10.70;99399.00;;;;342660;28;92435;-90
2022/03/13 00:39:13;;;;;;;;;;;10.30;93.40;10.70;99397.00;;;;342085;28;96016;-90
2022/03/13 00:39:24;;;;;;;;;;;10.30;93.50;10.70;99412.00;;;;342751;28;90555;-90
2022/03/13 00:39:39;;;;;;;;;;;10.40;93.50;10.70;99396.00;;;;342990;28;95454;-90
2022/03/13 00:39:51;;;;;;;;;;;10.40;93.50;10.70;99403.00;;;;342385;28;92096;-89
2022/03/13 00:40:03;;;;;;;;;;;10.30;93.50;10.70;99412.00;;;;345735;28;95057;-90
2022/03/13 00:40:16;;;;;;;;;;;10.30;93.50;10.70;99401.00;;;;344709;28;92029;-89
2022/03/13 00:40:27;;;;;;;;;;;10.30;93.60;10.80;99406.00;;;;347134;28;95697;-90
2022/03/13 00:40:40;;;;;;;;;;;10.40;93.60;10.80;99402.00;;;;345079;28;91965;-90
2022/03/13 00:40:53;;;;;;;;;;;10.30;93.60;10.90;99401.00;;;;344016;28;98041;-89
2022/03/13 00:41:05;;;;;;;;;;;10.40;93.50;10.80;99406.00;;;;345467;28;92110;-90
2022/03/13 00:41:17;;;;;;;;;;;10.40;93.50;10.80;99406.00;;;;345819;28;94665;-89
2022/03/13 00:41:28;;;;;;;;;;;10.30;93.50;10.80;99396.00;;;;345278;28;91382;-89
2022/03/13 00:41:40;;;;;;;;;;;10.40;93.50;10.80;99403.00;;;;346003;27;94360;-90
2022/03/13 00:41:52;;;;;;;;;;;10.30;93.50;10.80;99406.00;;;;344188;28;92678;-89
2022/03/13 00:42:05;;;;;;;;;;;10.40;93.50;10.80;99408.00;;;;347037;28;95738;-90
2022/03/13 00:42:17;;;;;;;;;;;10.30;93.50;10.80;99400.00;;;;346690;27;91180;-89
2022/03/13 00:42:28;;;;;;;;;;;10.30;93.60;10.80;99403.00;;;;345612;28;95732;-90
2022/03/13 00:42:40;;;;;;;;;;;10.30;93.60;10.80;99400.00;;;;348214;27;92003;-90
2022/03/13 00:42:52;;;;;;;;;;;10.40;93.60;10.80;99393.00;;;;347074;28;95224;-90
2022/03/13 00:43:04;;;;;;;;;;;10.30;93.50;10.90;99404.00;;;;346589;28;92090;-89
2022/03/13 00:43:16;;;;;;;;;;;10.40;93.50;10.80;99402.00;;;;347089;28;94616;-90
2022/03/13 00:43:28;;;;;;;;;;;10.30;93.50;10.80;99407.00;;;;345487;28;91344;-90
2022/03/13 00:43:40;;;;;;;;;;;10.40;93.60;10.70;99407.00;;;;345331;28;95009;-90
2022/03/13 00:43:57;;;;;;;;;;;10.30;93.60;10.70;99411.00;;;;343403;28;92521;-89
2022/03/13 00:44:08;;;;;;;;;;;10.30;93.50;10.80;99411.00;;;;346928;28;95764;-89
2022/03/13 00:44:20;;;;;;;;;;;10.30;93.50;10.80;99408.00;;;;348092;27;92007;-89
2022/03/13 00:44:32;;;;;;;;;;;10.40;93.50;10.80;99402.00;;;;347092;28;94710;-90
2022/03/13 00:44:44;;;;;;;;;;;10.30;93.50;10.80;99408.00;;;;346748;28;92056;-89
2022/03/13 00:44:56;;;;;;;;;;;10.30;93.50;10.80;99407.00;;;;345677;28;93829;-89
2022/03/13 00:45:09;;;;;;;;;;;10.40;93.60;10.70;99403.00;;;;345522;28;91979;-89
2022/03/13 00:45:20;;;;;;;;;;;10.40;93.60;10.70;99412.00;;;;345676;28;95510;-89
2022/03/13 00:45:32;;;;;;;;;;;10.30;93.90;10.70;99397.00;;;;346755;28;91402;-89
2022/03/13 00:45:44;;;;;;;;;;;10.30;93.60;10.70;99411.00;;;;345774;28;95640;-89
2022/03/13 00:45:56;;;;;;;;;;;10.30;93.60;10.70;99405.00;;;;347001;28;91965;-89
2022/03/13 00:46:08;;;;;;;;;;;10.30;93.60;10.70;99412.00;;;;345671;28;95821;-89
2022/03/13 00:46:20;;;;;;;;;;;10.30;93.60;10.70;99411.00;;;;346886;28;92032;-90
2022/03/13 00:46:32;;;;;;;;;;;10.30;93.60;10.70;99411.00;;;;348465;27;95662;-89
2022/03/13 00:46:44;;;;;;;;;;;10.30;93.60;10.70;99405.00;;;;346105;28;92207;-89
2022/03/13 00:46:55;;;;;;;;;;;10.30;93.70;10.70;99405.00;;;;344177;28;96015;-89
2022/03/13 00:47:07;;;;;;;;;;;10.30;93.70;10.70;99408.00;;;;345113;28;92032;-89
2022/03/13 00:47:20;;;;;;;;;;;10.30;93.70;10.80;99402.00;;;;347080;28;96422;-90
2022/03/13 00:47:32;;;;;;;;;;;10.30;93.70;10.70;99406.00;;;;347018;27;91358;-89
2022/03/13 00:47:43;;;;;;;;;;;10.30;93.70;10.70;99405.00;;;;347881;27;93900;-89
2022/03/13 00:47:56;;;;;;;;;;;10.30;93.60;10.70;99411.00;;;;349738;27;91929;-90
2022/03/13 00:48:08;;;;;;;;;;;10.30;93.60;10.80;99399.00;;;;344116;28;94278;-89
2022/03/13 00:48:20;;;;;;;;;;;10.30;93.70;10.70;99398.00;;;;345410;28;92121;-89
2022/03/13 00:48:32;;;;;;;;;;;10.30;93.70;10.80;99406.00;;;;349881;27;94666;-89
2022/03/13 00:48:44;;;;;;;;;;;10.30;93.70;10.70;99401.00;;;;347969;27;92073;-89
2022/03/13 00:48:55;;;;;;;;;;;10.30;93.70;10.80;99400.00;;;;347037;28;95811;-90
2022/03/13 00:49:08;;;;;;;;;;;10.30;93.70;10.80;99404.00;;;;346869;28;92080;-89
2022/03/13 00:49:20;;;;;;;;;;;10.30;93.80;10.70;99404.00;;;;347059;28;94741;-89
2022/03/13 00:49:32;;;;;;;;;;;10.30;93.70;10.70;99398.00;;;;347881;27;91340;-89
2022/03/13 00:49:47;;;;;;;;;;;10.30;93.70;10.70;99398.00;;;;347021;28;94862;-90
2022/03/13 00:49:59;;;;;;;;;;;10.30;93.60;10.80;99399.00;;;;343877;28;92088;-89
2022/03/13 00:50:11;;;;;;;;;;;10.30;93.60;10.80;99398.00;;;;345594;28;95791;-89
2022/03/13 00:50:23;;;;;;;;;;;10.30;93.60;10.80;99394.00;;;;345446;28;92071;-89
2022/03/13 00:50:35;;;;;;;;;;;10.30;93.70;10.70;99398.00;;;;344030;28;95935;-90
2022/03/13 00:50:47;;;;;;;;;;;10.30;93.90;10.80;99397.00;;;;346588;28;92191;-90
2022/03/13 00:50:59;;;;;;;;;;;10.30;93.60;10.70;99401.00;;;;348359;27;96260;-89
2022/03/13 00:51:11;;;;;;;;;;;10.30;93.60;10.70;99400.00;;;;346909;28;92010;-89
2022/03/13 00:51:23;;;;;;;;;;;10.30;93.60;10.70;99403.00;;;;346117;28;95447;-89
2022/03/13 00:51:35;;;;;;;;;;;10.30;93.70;10.70;99398.00;;;;345515;28;91246;-90
2022/03/13 00:51:47;;;;;;;;;;;10.30;93.70;10.70;99394.00;;;;347008;28;95146;-89
2022/03/13 00:52:01;;;;;;;;;;;10.30;93.70;10.80;99402.00;;;;346855;27;91945;-89
2022/03/13 00:52:13;;;;;;;;;;;10.30;93.70;10.80;99401.00;;;;347195;28;95672;-89
2022/03/13 00:52:24;;;;;;;;;;;10.30;93.80;10.70;99395.00;;;;345494;28;92010;-90
2022/03/13 00:52:36;;;;;;;;;;;10.30;93.80;10.70;99392.00;;;;344794;28;94897;-89
2022/03/13 00:52:48;;;;;;;;;;;10.30;93.80;10.70;99395.00;;;;346225;28;92127;-89
2022/03/13 00:53:00;;;;;;;;;;;10.30;93.80;10.80;99398.00;;;;347075;27;95784;-90
2022/03/13 00:53:12;;;;;;;;;;;10.30;93.80;10.70;99396.00;;;;347307;27;92096;-89
2022/03/13 00:53:24;;;;;;;;;;;10.30;93.80;10.80;99403.00;;;;345843;28;95883;-89
2022/03/13 00:53:37;;;;;;;;;;;10.30;93.80;10.70;99404.00;;;;346900;28;90495;-89
2022/03/13 00:53:49;;;;;;;;;;;10.30;93.80;10.80;99399.00;;;;345698;28;95201;-89
2022/03/13 00:54:01;;;;;;;;;;;10.30;93.80;10.70;99400.00;;;;346759;28;92050;-89
2022/03/13 00:54:13;;;;;;;;;;;10.30;93.80;10.70;99398.00;;;;347824;27;95742;-90
2022/03/13 00:54:25;;;;;;;;;;;10.30;93.80;10.70;99396.00;;;;348311;27;91899;-89
2022/03/13 00:54:36;;;;;;;;;;;10.30;93.80;10.80;99406.00;;;;344329;28;93758;-89
2022/03/13 00:54:48;;;;;;;;;;;10.30;93.80;10.70;99400.00;;;;347290;27;91335;-89
2022/03/13 00:55:00;;;;;;;;;;;10.30;93.80;10.70;99396.00;;;;344386;28;96092;-90
2022/03/13 00:55:12;;;;;;;;;;;10.30;93.80;10.70;99400.00;;;;346925;28;91128;-89
2022/03/13 00:55:24;;;;;;;;;;;10.30;93.80;10.70;99406.00;;;;348233;27;95577;-90
2022/03/13 00:55:36;;;;;;;;;;;10.30;93.90;10.60;99409.00;;;;346300;27;91331;-89
2022/03/13 00:55:47;;;;;;;;;;;10.30;93.80;10.70;99407.00;;;;344115;28;95004;-90
2022/03/13 00:55:59;;;;;;;;;;;10.30;93.80;10.60;99400.00;;;;348123;27;92069;-89
2022/03/13 00:56:11;;;;;;;;;;;10.30;93.90;10.70;99396.00;;;;345391;28;92355;-89
2022/03/13 00:56:23;;;;;;;;;;;10.30;93.80;10.70;99404.00;;;;346923;28;92073;-90
2022/03/13 00:56:35;;;;;;;;;;;10.30;93.80;10.70;99399.00;;;;345735;28;95647;-90
2022/03/13 00:56:47;;;;;;;;;;;10.30;93.80;10.70;99405.00;;;;346659;28;92086;-89
2022/03/13 00:56:59;;;;;;;;;;;10.30;93.70;10.70;99407.00;;;;347245;28;93555;-90
2022/03/13 00:57:11;;;;;;;;;;;10.30;93.70;10.70;99393.00;;;;346990;28;92089;-89
2022/03/13 00:57:23;;;;;;;;;;;10.30;93.70;10.70;99397.00;;;;347606;27;95967;-89
2022/03/13 00:57:35;;;;;;;;;;;10.30;93.80;10.70;99401.00;;;;346669;28;91266;-89
2022/03/13 00:57:46;;;;;;;;;;;10.30;93.80;10.70;99399.00;;;;348449;27;93948;-89
2022/03/13 00:57:58;;;;;;;;;;;10.30;93.80;10.60;99393.00;;;;346951;28;91090;-89
2022/03/13 00:58:10;;;;;;;;;;;10.20;93.80;10.70;99401.00;;;;347934;27;95655;-89
2022/03/13 00:58:22;;;;;;;;;;;10.20;93.80;10.60;99396.00;;;;347354;27;91180;-89
2022/03/13 00:58:33;;;;;;;;;;;10.20;93.80;10.60;99396.00;;;;344355;28;94881;-89
2022/03/13 00:58:45;;;;;;;;;;;10.20;93.80;10.60;99407.00;;;;346327;28;92085;-90
2022/03/13 00:58:58;;;;;;;;;;;10.20;93.80;10.70;99402.00;;;;348240;27;96032;-90
2022/03/13 00:59:09;;;;;;;;;;;10.20;93.80;10.60;99395.00;;;;348127;27;91206;-90
2022/03/13 00:59:21;;;;;;;;;;;10.20;93.90;10.70;99388.00;;;;345552;28;95932;-89
2022/03/13 00:59:34;;;;;;;;;;;10.20;93.90;10.70;99403.00;;;;345106;28;91325;-89
2022/03/13 00:59:46;;;;;;;;;;;10.20;93.90;10.60;99396.00;;;;346374;28;95153;-89
2022/03/13 00:59:58;;;;;;;;;;;10.20;93.80;10.60;99398.00;;;;348238;27;92028;-89
2022/03/13 01:00:13;;;;;;;;;;;10.20;93.90;10.70;99396.00;;;;347024;28;93736;-89
2022/03/13 01:00:25;;;;;;;;;;;10.20;93.90;10.60;99393.00;;;;346948;28;91837;-89
2022/03/13 01:00:37;;;;;;;;;;;10.20;93.90;10.60;99405.00;;;;347038;28;95995;-88
2022/03/13 01:00:49;;;;;;;;;;;10.20;93.90;10.60;99396.00;;;;345419;28;91976;-89
2022/03/13 01:01:02;;;;;;;;;;;10.20;93.90;10.60;99402.00;;;;345753;28;96791;-90
2022/03/13 01:01:14;;;;;;;;;;;10.20;93.90;10.60;99389.00;;;;345501;28;92026;-89
2022/03/13 01:01:26;;;;;;;;;;;10.20;93.90;10.60;99399.00;;;;348224;27;94538;-89
2022/03/13 01:01:38;;;;;;;;;;;10.20;93.90;10.70;99397.00;;;;346434;28;91203;-89
2022/03/13 01:01:50;;;;;;;;;;;10.20;93.90;10.60;99391.00;;;;346904;28;95000;-89
2022/03/13 01:02:02;;;;;;;;;;;10.20;94.00;10.60;99402.00;;;;346779;28;91998;-89
2022/03/13 01:02:14;;;;;;;;;;;10.20;93.90;10.70;99397.00;;;;345525;28;95847;-90
2022/03/13 01:02:26;;;;;;;;;;;10.20;93.90;10.60;99405.00;;;;343698;28;92051;-89
2022/03/13 01:02:38;;;;;;;;;;;10.20;94.00;10.60;99391.00;;;;344411;28;93393;-89
2022/03/13 01:02:50;;;;;;;;;;;10.20;94.00;10.70;99389.00;;;;346748;28;92058;-89
2022/03/13 01:03:02;;;;;;;;;;;10.20;94.00;10.70;99405.00;;;;345838;28;92627;-89
2022/03/13 01:03:49;;;;;;;;;;;10.20;94.00;10.70;99402.00;;;;345506;28;91915;-90